sensor_id;sensor_type;location;lat;lon;timestamp;P1;durP1;ratioP1;P2;durP2;ratioP2
7017;SDS011;3549;42.162;24.726;2022-10-31T00:01:55;10.87;;;4.30;;
7017;SDS011;3549;42.162;24.726;2022-10-31T00:04:21;8.07;;;3.93;;
7017;SDS011;3549;42.162;24.726;2022-10-31T00:06:46;7.83;;;3.67;;
7017;SDS011;3549;42.162;24.726;2022-10-31T00:09:11;9.03;;;4.10;;
7017;SDS011;3549;42.162;24.726;2022-10-31T00:11:37;8.53;;;3.77;;
7017;SDS011;3549;42.162;24.726;2022-10-31T00:14:02;7.37;;;3.93;;
7017;SDS011;3549;42.162;24.726;2022-10-31T00:16:29;6.93;;;3.87;;
7017;SDS011;3549;42.162;24.726;2022-10-31T00:18:55;9.07;;;4.10;;
7017;SDS011;3549;42.162;24.726;2022-10-31T00:21:23;7.80;;;3.80;;
7017;SDS011;3549;42.162;24.726;2022-10-31T00:23:49;7.43;;;4.00;;
7017;SDS011;3549;42.162;24.726;2022-10-31T00:26:15;7.47;;;4.40;;
7017;SDS011;3549;42.162;24.726;2022-10-31T00:28:41;8.30;;;3.60;;
7017;SDS011;3549;42.162;24.726;2022-10-31T00:31:07;9.27;;;3.97;;
7017;SDS011;3549;42.162;24.726;2022-10-31T00:33:34;7.17;;;3.97;;
7017;SDS011;3549;42.162;24.726;2022-10-31T00:36:01;11.07;;;4.53;;
7017;SDS011;3549;42.162;24.726;2022-10-31T00:38:27;7.33;;;3.90;;
7017;SDS011;3549;42.162;24.726;2022-10-31T00:40:53;7.70;;;4.60;;
7017;SDS011;3549;42.162;24.726;2022-10-31T00:43:18;6.60;;;3.80;;
7017;SDS011;3549;42.162;24.726;2022-10-31T00:45:44;8.60;;;4.40;;
7017;SDS011;3549;42.162;24.726;2022-10-31T00:48:09;5.97;;;3.63;;
7017;SDS011;3549;42.162;24.726;2022-10-31T00:50:35;7.87;;;4.10;;
7017;SDS011;3549;42.162;24.726;2022-10-31T00:53:01;8.30;;;4.00;;
7017;SDS011;3549;42.162;24.726;2022-10-31T00:55:26;7.50;;;3.90;;
7017;SDS011;3549;42.162;24.726;2022-10-31T00:57:52;8.77;;;3.97;;
7017;SDS011;3549;42.162;24.726;2022-10-31T01:00:17;6.03;;;3.73;;
7017;SDS011;3549;42.162;24.726;2022-10-31T01:02:42;8.13;;;3.80;;
7017;SDS011;3549;42.162;24.726;2022-10-31T01:05:08;9.13;;;4.00;;
7017;SDS011;3549;42.162;24.726;2022-10-31T01:07:37;7.60;;;3.40;;
7017;SDS011;3549;42.162;24.726;2022-10-31T01:10:04;5.83;;;3.67;;
7017;SDS011;3549;42.162;24.726;2022-10-31T01:12:35;8.50;;;3.80;;
7017;SDS011;3549;42.162;24.726;2022-10-31T01:15:04;6.73;;;3.60;;
7017;SDS011;3549;42.162;24.726;2022-10-31T01:17:30;6.23;;;3.43;;
7017;SDS011;3549;42.162;24.726;2022-10-31T01:19:56;5.67;;;3.50;;
7017;SDS011;3549;42.162;24.726;2022-10-31T01:22:21;6.67;;;3.57;;
7017;SDS011;3549;42.162;24.726;2022-10-31T01:24:46;6.93;;;3.70;;
7017;SDS011;3549;42.162;24.726;2022-10-31T01:27:12;7.07;;;3.73;;
7017;SDS011;3549;42.162;24.726;2022-10-31T01:29:37;9.17;;;3.50;;
7017;SDS011;3549;42.162;24.726;2022-10-31T01:32:02;7.23;;;3.57;;
7017;SDS011;3549;42.162;24.726;2022-10-31T01:34:28;6.20;;;3.47;;
7017;SDS011;3549;42.162;24.726;2022-10-31T01:36:54;6.00;;;3.57;;
7017;SDS011;3549;42.162;24.726;2022-10-31T01:39:19;6.67;;;3.60;;
7017;SDS011;3549;42.162;24.726;2022-10-31T01:41:45;6.43;;;3.63;;
7017;SDS011;3549;42.162;24.726;2022-10-31T01:46:43;7.60;;;3.70;;
7017;SDS011;3549;42.162;24.726;2022-10-31T01:49:14;6.07;;;3.50;;
7017;SDS011;3549;42.162;24.726;2022-10-31T01:51:45;8.43;;;3.50;;
7017;SDS011;3549;42.162;24.726;2022-10-31T01:54:15;5.87;;;3.53;;
7017;SDS011;3549;42.162;24.726;2022-10-31T01:56:46;5.83;;;3.57;;
7017;SDS011;3549;42.162;24.726;2022-10-31T01:59:14;6.27;;;3.70;;
7017;SDS011;3549;42.162;24.726;2022-10-31T02:01:42;6.63;;;3.47;;
7017;SDS011;3549;42.162;24.726;2022-10-31T02:04:08;6.00;;;3.27;;
7017;SDS011;3549;42.162;24.726;2022-10-31T02:09:13;8.13;;;3.93;;
7017;SDS011;3549;42.162;24.726;2022-10-31T02:11:39;6.10;;;3.70;;
7017;SDS011;3549;42.162;24.726;2022-10-31T02:14:07;8.50;;;4.03;;
7017;SDS011;3549;42.162;24.726;2022-10-31T02:16:32;6.00;;;3.70;;
7017;SDS011;3549;42.162;24.726;2022-10-31T02:18:57;6.63;;;3.47;;
7017;SDS011;3549;42.162;24.726;2022-10-31T02:21:25;9.47;;;3.87;;
7017;SDS011;3549;42.162;24.726;2022-10-31T02:32:00;7.23;;;3.67;;
7017;SDS011;3549;42.162;24.726;2022-10-31T02:37:09;6.67;;;3.90;;
7017;SDS011;3549;42.162;24.726;2022-10-31T02:40:04;8.20;;;4.00;;
7017;SDS011;3549;42.162;24.726;2022-10-31T02:47:33;5.77;;;3.30;;
7017;SDS011;3549;42.162;24.726;2022-10-31T02:52:41;6.87;;;3.37;;
7017;SDS011;3549;42.162;24.726;2022-10-31T02:55:39;6.37;;;3.60;;
7017;SDS011;3549;42.162;24.726;2022-10-31T03:00:34;7.33;;;3.73;;
7017;SDS011;3549;42.162;24.726;2022-10-31T03:08:55;7.70;;;3.80;;
7017;SDS011;3549;42.162;24.726;2022-10-31T03:11:28;7.13;;;3.43;;
7017;SDS011;3549;42.162;24.726;2022-10-31T03:14:00;6.50;;;3.80;;
7017;SDS011;3549;42.162;24.726;2022-10-31T03:16:59;5.87;;;3.30;;
7017;SDS011;3549;42.162;24.726;2022-10-31T03:19:30;6.87;;;3.20;;
7017;SDS011;3549;42.162;24.726;2022-10-31T03:24:51;7.40;;;3.20;;
7017;SDS011;3549;42.162;24.726;2022-10-31T03:27:21;8.40;;;3.50;;
7017;SDS011;3549;42.162;24.726;2022-10-31T03:29:50;6.93;;;3.60;;
7017;SDS011;3549;42.162;24.726;2022-10-31T03:32:42;6.67;;;3.47;;
7017;SDS011;3549;42.162;24.726;2022-10-31T03:35:10;6.57;;;3.10;;
7017;SDS011;3549;42.162;24.726;2022-10-31T03:37:40;6.63;;;3.67;;
7017;SDS011;3549;42.162;24.726;2022-10-31T03:40:06;8.93;;;4.00;;
7017;SDS011;3549;42.162;24.726;2022-10-31T03:42:34;6.93;;;3.60;;
7017;SDS011;3549;42.162;24.726;2022-10-31T03:47:33;6.17;;;3.40;;
7017;SDS011;3549;42.162;24.726;2022-10-31T03:50:02;8.67;;;4.77;;
7017;SDS011;3549;42.162;24.726;2022-10-31T03:52:36;8.40;;;4.13;;
7017;SDS011;3549;42.162;24.726;2022-10-31T03:57:55;7.93;;;3.90;;
7017;SDS011;3549;42.162;24.726;2022-10-31T04:00:27;6.47;;;3.87;;
7017;SDS011;3549;42.162;24.726;2022-10-31T04:02:58;9.00;;;4.33;;
7017;SDS011;3549;42.162;24.726;2022-10-31T04:05:28;8.30;;;4.20;;
7017;SDS011;3549;42.162;24.726;2022-10-31T04:07:55;6.40;;;3.77;;
7017;SDS011;3549;42.162;24.726;2022-10-31T04:10:23;8.93;;;4.20;;
7017;SDS011;3549;42.162;24.726;2022-10-31T04:12:53;8.53;;;4.07;;
7017;SDS011;3549;42.162;24.726;2022-10-31T04:15:22;8.87;;;3.83;;
7017;SDS011;3549;42.162;24.726;2022-10-31T04:17:50;8.33;;;4.63;;
7017;SDS011;3549;42.162;24.726;2022-10-31T04:20:28;8.43;;;4.10;;
7017;SDS011;3549;42.162;24.726;2022-10-31T04:22:58;7.53;;;4.50;;
7017;SDS011;3549;42.162;24.726;2022-10-31T04:25:23;7.33;;;3.83;;
7017;SDS011;3549;42.162;24.726;2022-10-31T04:27:48;8.07;;;4.20;;
7017;SDS011;3549;42.162;24.726;2022-10-31T04:30:14;9.43;;;4.17;;
7017;SDS011;3549;42.162;24.726;2022-10-31T04:32:39;7.43;;;3.93;;
7017;SDS011;3549;42.162;24.726;2022-10-31T04:35:05;8.20;;;4.03;;
7017;SDS011;3549;42.162;24.726;2022-10-31T04:37:31;6.27;;;3.77;;
7017;SDS011;3549;42.162;24.726;2022-10-31T04:39:56;10.07;;;4.33;;
7017;SDS011;3549;42.162;24.726;2022-10-31T04:42:21;7.80;;;4.00;;
7017;SDS011;3549;42.162;24.726;2022-10-31T04:44:47;8.57;;;4.20;;
7017;SDS011;3549;42.162;24.726;2022-10-31T04:47:12;10.10;;;4.70;;
7017;SDS011;3549;42.162;24.726;2022-10-31T04:49:37;7.20;;;4.10;;
7017;SDS011;3549;42.162;24.726;2022-10-31T04:52:03;7.80;;;3.73;;
7017;SDS011;3549;42.162;24.726;2022-10-31T04:54:29;8.13;;;4.17;;
7017;SDS011;3549;42.162;24.726;2022-10-31T04:56:54;9.60;;;4.47;;
7017;SDS011;3549;42.162;24.726;2022-10-31T04:59:19;8.90;;;3.80;;
7017;SDS011;3549;42.162;24.726;2022-10-31T05:01:45;7.47;;;3.80;;
7017;SDS011;3549;42.162;24.726;2022-10-31T05:04:10;8.07;;;3.90;;
7017;SDS011;3549;42.162;24.726;2022-10-31T05:06:36;9.00;;;4.07;;
7017;SDS011;3549;42.162;24.726;2022-10-31T05:09:01;9.10;;;4.27;;
7017;SDS011;3549;42.162;24.726;2022-10-31T05:11:27;8.60;;;3.87;;
7017;SDS011;3549;42.162;24.726;2022-10-31T05:16:35;12.03;;;5.27;;
7017;SDS011;3549;42.162;24.726;2022-10-31T05:19:06;11.50;;;4.50;;
7017;SDS011;3549;42.162;24.726;2022-10-31T05:21:32;9.97;;;5.30;;
7017;SDS011;3549;42.162;24.726;2022-10-31T05:23:57;11.33;;;5.07;;
7017;SDS011;3549;42.162;24.726;2022-10-31T05:26:23;9.63;;;4.63;;
7017;SDS011;3549;42.162;24.726;2022-10-31T05:28:51;9.60;;;6.07;;
7017;SDS011;3549;42.162;24.726;2022-10-31T05:31:17;7.60;;;4.20;;
7017;SDS011;3549;42.162;24.726;2022-10-31T05:33:42;7.13;;;3.90;;
7017;SDS011;3549;42.162;24.726;2022-10-31T05:36:07;6.77;;;3.90;;
7017;SDS011;3549;42.162;24.726;2022-10-31T05:38:33;8.20;;;4.60;;
7017;SDS011;3549;42.162;24.726;2022-10-31T05:40:58;7.20;;;4.13;;
7017;SDS011;3549;42.162;24.726;2022-10-31T05:43:26;9.27;;;4.00;;
7017;SDS011;3549;42.162;24.726;2022-10-31T05:45:52;7.60;;;4.50;;
7017;SDS011;3549;42.162;24.726;2022-10-31T05:48:18;9.20;;;4.60;;
7017;SDS011;3549;42.162;24.726;2022-10-31T05:50:44;9.67;;;4.80;;
7017;SDS011;3549;42.162;24.726;2022-10-31T05:53:09;9.03;;;4.00;;
7017;SDS011;3549;42.162;24.726;2022-10-31T05:55:35;8.03;;;4.67;;
7017;SDS011;3549;42.162;24.726;2022-10-31T05:58:00;10.13;;;4.30;;
7017;SDS011;3549;42.162;24.726;2022-10-31T06:00:26;10.03;;;4.50;;
7017;SDS011;3549;42.162;24.726;2022-10-31T06:02:58;8.43;;;4.50;;
7017;SDS011;3549;42.162;24.726;2022-10-31T06:05:24;9.13;;;4.43;;
7017;SDS011;3549;42.162;24.726;2022-10-31T06:07:50;9.57;;;4.93;;
7017;SDS011;3549;42.162;24.726;2022-10-31T06:10:15;13.00;;;5.57;;
7017;SDS011;3549;42.162;24.726;2022-10-31T06:12:41;11.67;;;5.40;;
7017;SDS011;3549;42.162;24.726;2022-10-31T06:15:07;11.77;;;4.73;;
7017;SDS011;3549;42.162;24.726;2022-10-31T06:17:34;11.23;;;4.20;;
7017;SDS011;3549;42.162;24.726;2022-10-31T06:20:00;9.27;;;4.20;;
7017;SDS011;3549;42.162;24.726;2022-10-31T06:22:26;11.10;;;4.17;;
7017;SDS011;3549;42.162;24.726;2022-10-31T06:24:51;13.37;;;4.27;;
7017;SDS011;3549;42.162;24.726;2022-10-31T06:27:17;10.10;;;4.40;;
7017;SDS011;3549;42.162;24.726;2022-10-31T06:29:42;12.57;;;5.47;;
7017;SDS011;3549;42.162;24.726;2022-10-31T06:32:10;10.10;;;4.30;;
7017;SDS011;3549;42.162;24.726;2022-10-31T06:34:37;16.50;;;6.50;;
7017;SDS011;3549;42.162;24.726;2022-10-31T06:37:02;13.83;;;6.27;;
7017;SDS011;3549;42.162;24.726;2022-10-31T06:39:28;9.33;;;4.10;;
7017;SDS011;3549;42.162;24.726;2022-10-31T06:41:53;8.03;;;4.20;;
7017;SDS011;3549;42.162;24.726;2022-10-31T06:44:19;6.67;;;4.33;;
7017;SDS011;3549;42.162;24.726;2022-10-31T06:46:46;11.07;;;4.80;;
7017;SDS011;3549;42.162;24.726;2022-10-31T06:49:12;7.73;;;4.60;;
7017;SDS011;3549;42.162;24.726;2022-10-31T06:51:37;8.20;;;3.93;;
7017;SDS011;3549;42.162;24.726;2022-10-31T06:54:03;7.80;;;3.80;;
7017;SDS011;3549;42.162;24.726;2022-10-31T06:56:28;8.93;;;4.20;;
7017;SDS011;3549;42.162;24.726;2022-10-31T06:58:54;8.90;;;4.20;;
7017;SDS011;3549;42.162;24.726;2022-10-31T07:01:20;11.73;;;5.10;;
7017;SDS011;3549;42.162;24.726;2022-10-31T07:03:45;7.07;;;3.73;;
7017;SDS011;3549;42.162;24.726;2022-10-31T07:06:10;12.43;;;4.20;;
7017;SDS011;3549;42.162;24.726;2022-10-31T07:08:36;7.33;;;4.20;;
7017;SDS011;3549;42.162;24.726;2022-10-31T07:11:01;7.67;;;4.00;;
7017;SDS011;3549;42.162;24.726;2022-10-31T07:13:27;9.77;;;4.20;;
7017;SDS011;3549;42.162;24.726;2022-10-31T07:15:53;7.23;;;3.90;;
7017;SDS011;3549;42.162;24.726;2022-10-31T07:18:20;10.47;;;3.90;;
7017;SDS011;3549;42.162;24.726;2022-10-31T07:20:46;10.20;;;4.27;;
7017;SDS011;3549;42.162;24.726;2022-10-31T07:23:12;8.53;;;4.10;;
7017;SDS011;3549;42.162;24.726;2022-10-31T07:25:38;8.10;;;3.90;;
7017;SDS011;3549;42.162;24.726;2022-10-31T07:28:05;7.17;;;3.83;;
7017;SDS011;3549;42.162;24.726;2022-10-31T07:30:33;7.47;;;4.00;;
7017;SDS011;3549;42.162;24.726;2022-10-31T07:32:59;8.30;;;4.00;;
7017;SDS011;3549;42.162;24.726;2022-10-31T07:35:45;8.53;;;3.57;;
7017;SDS011;3549;42.162;24.726;2022-10-31T07:38:15;9.67;;;4.37;;
7017;SDS011;3549;42.162;24.726;2022-10-31T07:40:43;8.77;;;3.83;;
7017;SDS011;3549;42.162;24.726;2022-10-31T07:43:14;8.43;;;4.50;;
7017;SDS011;3549;42.162;24.726;2022-10-31T07:45:39;8.57;;;4.50;;
7017;SDS011;3549;42.162;24.726;2022-10-31T07:48:04;8.27;;;4.60;;
7017;SDS011;3549;42.162;24.726;2022-10-31T07:50:31;5.70;;;3.77;;
7017;SDS011;3549;42.162;24.726;2022-10-31T07:55:24;9.07;;;4.13;;
7017;SDS011;3549;42.162;24.726;2022-10-31T07:57:59;7.40;;;4.00;;
7017;SDS011;3549;42.162;24.726;2022-10-31T08:00:27;7.67;;;3.90;;
7017;SDS011;3549;42.162;24.726;2022-10-31T08:03:00;7.87;;;4.30;;
7017;SDS011;3549;42.162;24.726;2022-10-31T08:05:27;9.37;;;4.23;;
7017;SDS011;3549;42.162;24.726;2022-10-31T08:07:53;8.70;;;4.23;;
7017;SDS011;3549;42.162;24.726;2022-10-31T08:10:19;11.17;;;4.10;;
7017;SDS011;3549;42.162;24.726;2022-10-31T08:12:45;7.40;;;4.30;;
7017;SDS011;3549;42.162;24.726;2022-10-31T08:15:10;8.13;;;4.40;;
7017;SDS011;3549;42.162;24.726;2022-10-31T08:17:36;8.17;;;4.10;;
7017;SDS011;3549;42.162;24.726;2022-10-31T08:20:02;8.97;;;4.10;;
7017;SDS011;3549;42.162;24.726;2022-10-31T08:22:28;10.23;;;4.23;;
7017;SDS011;3549;42.162;24.726;2022-10-31T08:24:53;8.47;;;4.00;;
7017;SDS011;3549;42.162;24.726;2022-10-31T08:27:19;7.30;;;3.67;;
7017;SDS011;3549;42.162;24.726;2022-10-31T08:29:44;7.93;;;4.00;;
7017;SDS011;3549;42.162;24.726;2022-10-31T08:32:10;7.33;;;4.10;;
7017;SDS011;3549;42.162;24.726;2022-10-31T08:34:35;8.63;;;4.10;;
7017;SDS011;3549;42.162;24.726;2022-10-31T08:37:00;12.33;;;5.10;;
7017;SDS011;3549;42.162;24.726;2022-10-31T08:39:26;7.83;;;4.30;;
7017;SDS011;3549;42.162;24.726;2022-10-31T08:41:51;6.80;;;4.00;;
7017;SDS011;3549;42.162;24.726;2022-10-31T08:44:16;9.32;;;4.32;;
7017;SDS011;3549;42.162;24.726;2022-10-31T08:46:42;9.45;;;4.18;;
7017;SDS011;3549;42.162;24.726;2022-10-31T08:49:07;6.55;;;3.92;;
7017;SDS011;3549;42.162;24.726;2022-10-31T08:51:32;6.80;;;3.92;;
7017;SDS011;3549;42.162;24.726;2022-10-31T08:53:58;8.23;;;4.45;;
7017;SDS011;3549;42.162;24.726;2022-10-31T08:56:23;9.05;;;4.22;;
7017;SDS011;3549;42.162;24.726;2022-10-31T08:58:49;6.55;;;4.05;;
7017;SDS011;3549;42.162;24.726;2022-10-31T09:01:16;6.28;;;3.65;;
7017;SDS011;3549;42.162;24.726;2022-10-31T09:03:41;8.43;;;4.30;;
7017;SDS011;3549;42.162;24.726;2022-10-31T09:06:06;7.55;;;3.95;;
7017;SDS011;3549;42.162;24.726;2022-10-31T09:08:34;8.65;;;3.50;;
7017;SDS011;3549;42.162;24.726;2022-10-31T09:11:00;8.68;;;3.60;;
7017;SDS011;3549;42.162;24.726;2022-10-31T09:13:26;10.43;;;3.80;;
7017;SDS011;3549;42.162;24.726;2022-10-31T09:15:51;8.23;;;3.47;;
7017;SDS011;3549;42.162;24.726;2022-10-31T09:18:20;9.33;;;4.10;;
7017;SDS011;3549;42.162;24.726;2022-10-31T09:20:47;9.63;;;4.20;;
7017;SDS011;3549;42.162;24.726;2022-10-31T09:23:15;6.37;;;3.67;;
7017;SDS011;3549;42.162;24.726;2022-10-31T09:25:45;8.63;;;4.10;;
7017;SDS011;3549;42.162;24.726;2022-10-31T09:28:12;8.27;;;4.20;;
7017;SDS011;3549;42.162;24.726;2022-10-31T09:30:39;8.80;;;4.20;;
7017;SDS011;3549;42.162;24.726;2022-10-31T09:33:06;12.57;;;4.40;;
7017;SDS011;3549;42.162;24.726;2022-10-31T09:35:34;6.80;;;3.90;;
7017;SDS011;3549;42.162;24.726;2022-10-31T09:38:10;8.57;;;4.30;;
7017;SDS011;3549;42.162;24.726;2022-10-31T09:40:41;7.40;;;4.30;;
7017;SDS011;3549;42.162;24.726;2022-10-31T09:46:08;7.37;;;4.20;;
7017;SDS011;3549;42.162;24.726;2022-10-31T09:51:03;7.80;;;3.53;;
7017;SDS011;3549;42.162;24.726;2022-10-31T09:53:34;9.45;;;3.47;;
7017;SDS011;3549;42.162;24.726;2022-10-31T09:56:06;6.50;;;3.10;;
7017;SDS011;3549;42.162;24.726;2022-10-31T09:58:40;7.50;;;3.03;;
7017;SDS011;3549;42.162;24.726;2022-10-31T10:01:22;8.07;;;3.20;;
7017;SDS011;3549;42.162;24.726;2022-10-31T10:04:24;8.68;;;3.35;;
7017;SDS011;3549;42.162;24.726;2022-10-31T10:06:57;5.72;;;3.33;;
7017;SDS011;3549;42.162;24.726;2022-10-31T10:09:27;5.75;;;2.70;;
7017;SDS011;3549;42.162;24.726;2022-10-31T10:17:49;6.15;;;3.53;;
7017;SDS011;3549;42.162;24.726;2022-10-31T10:25:43;5.57;;;3.00;;
7017;SDS011;3549;42.162;24.726;2022-10-31T10:28:31;8.43;;;4.78;;
7017;SDS011;3549;42.162;24.726;2022-10-31T10:31:10;5.72;;;2.92;;
7017;SDS011;3549;42.162;24.726;2022-10-31T10:33:42;7.35;;;3.28;;
7017;SDS011;3549;42.162;24.726;2022-10-31T10:36:30;6.68;;;3.20;;
7017;SDS011;3549;42.162;24.726;2022-10-31T10:39:04;3.88;;;2.85;;
7017;SDS011;3549;42.162;24.726;2022-10-31T10:41:43;6.25;;;2.90;;
7017;SDS011;3549;42.162;24.726;2022-10-31T10:44:12;7.70;;;2.85;;
7017;SDS011;3549;42.162;24.726;2022-10-31T10:46:47;7.95;;;3.30;;
7017;SDS011;3549;42.162;24.726;2022-10-31T11:00:41;6.78;;;3.28;;
7017;SDS011;3549;42.162;24.726;2022-10-31T11:03:07;4.53;;;3.08;;
7017;SDS011;3549;42.162;24.726;2022-10-31T11:08:07;6.50;;;3.33;;
7017;SDS011;3549;42.162;24.726;2022-10-31T11:10:33;6.28;;;3.17;;
7017;SDS011;3549;42.162;24.726;2022-10-31T11:15:27;5.43;;;2.83;;
7017;SDS011;3549;42.162;24.726;2022-10-31T11:17:55;6.78;;;2.70;;
7017;SDS011;3549;42.162;24.726;2022-10-31T11:20:27;8.38;;;3.00;;
7017;SDS011;3549;42.162;24.726;2022-10-31T11:23:03;7.90;;;2.72;;
7017;SDS011;3549;42.162;24.726;2022-10-31T11:28:31;7.60;;;3.40;;
7017;SDS011;3549;42.162;24.726;2022-10-31T11:31:00;6.05;;;3.30;;
7017;SDS011;3549;42.162;24.726;2022-10-31T11:33:34;5.53;;;2.88;;
7017;SDS011;3549;42.162;24.726;2022-10-31T11:36:09;6.57;;;3.20;;
7017;SDS011;3549;42.162;24.726;2022-10-31T11:38:50;7.55;;;3.42;;
7017;SDS011;3549;42.162;24.726;2022-10-31T11:43:50;8.95;;;4.15;;
7017;SDS011;3549;42.162;24.726;2022-10-31T11:46:25;5.45;;;3.58;;
7017;SDS011;3549;42.162;24.726;2022-10-31T11:48:56;4.65;;;2.58;;
7017;SDS011;3549;42.162;24.726;2022-10-31T11:51:23;6.18;;;2.38;;
7017;SDS011;3549;42.162;24.726;2022-10-31T11:53:52;5.75;;;2.83;;
7017;SDS011;3549;42.162;24.726;2022-10-31T11:56:19;7.32;;;3.72;;
7017;SDS011;3549;42.162;24.726;2022-10-31T11:58:54;10.32;;;3.85;;
7017;SDS011;3549;42.162;24.726;2022-10-31T12:01:27;8.65;;;3.30;;
7017;SDS011;3549;42.162;24.726;2022-10-31T12:06:20;9.27;;;2.75;;
7017;SDS011;3549;42.162;24.726;2022-10-31T12:08:49;9.77;;;4.00;;
7017;SDS011;3549;42.162;24.726;2022-10-31T12:14:41;6.65;;;3.45;;
7017;SDS011;3549;42.162;24.726;2022-10-31T12:25:32;8.90;;;3.35;;
7017;SDS011;3549;42.162;24.726;2022-10-31T12:58:03;6.80;;;2.55;;
7017;SDS011;3549;42.162;24.726;2022-10-31T13:00:35;6.20;;;3.00;;
7017;SDS011;3549;42.162;24.726;2022-10-31T13:05:53;3.63;;;2.22;;
7017;SDS011;3549;42.162;24.726;2022-10-31T13:08:26;5.53;;;2.40;;
7017;SDS011;3549;42.162;24.726;2022-10-31T13:11:09;7.63;;;2.35;;
7017;SDS011;3549;42.162;24.726;2022-10-31T13:13:54;7.65;;;2.72;;
7017;SDS011;3549;42.162;24.726;2022-10-31T13:16:26;5.22;;;2.58;;
7017;SDS011;3549;42.162;24.726;2022-10-31T13:21:37;6.70;;;2.53;;
7017;SDS011;3549;42.162;24.726;2022-10-31T13:24:09;6.82;;;2.90;;
7017;SDS011;3549;42.162;24.726;2022-10-31T13:26:44;6.80;;;3.00;;
7017;SDS011;3549;42.162;24.726;2022-10-31T13:31:42;8.90;;;2.30;;
7017;SDS011;3549;42.162;24.726;2022-10-31T13:45:22;11.23;;;4.95;;
7017;SDS011;3549;42.162;24.726;2022-10-31T13:47:59;12.80;;;4.50;;
7017;SDS011;3549;42.162;24.726;2022-10-31T13:50:29;6.28;;;3.30;;
7017;SDS011;3549;42.162;24.726;2022-10-31T13:56:13;4.38;;;2.70;;
7017;SDS011;3549;42.162;24.726;2022-10-31T13:58:33;6.05;;;3.20;;
7017;SDS011;3549;42.162;24.726;2022-10-31T14:01:00;13.07;;;3.30;;
7017;SDS011;3549;42.162;24.726;2022-10-31T14:03:35;8.93;;;3.75;;
7017;SDS011;3549;42.162;24.726;2022-10-31T14:06:02;10.48;;;4.72;;
7017;SDS011;3549;42.162;24.726;2022-10-31T14:08:33;10.38;;;4.00;;
7017;SDS011;3549;42.162;24.726;2022-10-31T14:11:00;9.75;;;3.75;;
7017;SDS011;3549;42.162;24.726;2022-10-31T14:13:31;11.38;;;5.15;;
7017;SDS011;3549;42.162;24.726;2022-10-31T14:16:06;7.22;;;3.50;;
7017;SDS011;3549;42.162;24.726;2022-10-31T14:18:45;13.88;;;4.97;;
7017;SDS011;3549;42.162;24.726;2022-10-31T14:21:26;9.90;;;4.07;;
7017;SDS011;3549;42.162;24.726;2022-10-31T14:23:54;16.45;;;5.88;;
7017;SDS011;3549;42.162;24.726;2022-10-31T14:28:58;9.32;;;4.00;;
7017;SDS011;3549;42.162;24.726;2022-10-31T14:34:21;9.38;;;4.05;;
7017;SDS011;3549;42.162;24.726;2022-10-31T14:53:18;10.30;;;3.45;;
7017;SDS011;3549;42.162;24.726;2022-10-31T14:55:51;9.95;;;3.22;;
7017;SDS011;3549;42.162;24.726;2022-10-31T14:58:20;10.32;;;3.20;;
7017;SDS011;3549;42.162;24.726;2022-10-31T15:00:50;11.10;;;3.67;;
7017;SDS011;3549;42.162;24.726;2022-10-31T15:03:32;10.13;;;3.72;;
7017;SDS011;3549;42.162;24.726;2022-10-31T15:06:03;12.40;;;4.57;;
7017;SDS011;3549;42.162;24.726;2022-10-31T15:08:44;10.77;;;4.25;;
7017;SDS011;3549;42.162;24.726;2022-10-31T15:13:47;10.65;;;4.30;;
7017;SDS011;3549;42.162;24.726;2022-10-31T15:16:21;10.00;;;4.20;;
7017;SDS011;3549;42.162;24.726;2022-10-31T15:18:59;7.30;;;3.30;;
7017;SDS011;3549;42.162;24.726;2022-10-31T15:21:28;7.17;;;3.57;;
7017;SDS011;3549;42.162;24.726;2022-10-31T15:23:55;10.97;;;3.80;;
7017;SDS011;3549;42.162;24.726;2022-10-31T15:26:23;11.33;;;4.03;;
7017;SDS011;3549;42.162;24.726;2022-10-31T15:29:03;11.03;;;3.90;;
7017;SDS011;3549;42.162;24.726;2022-10-31T15:31:31;8.03;;;3.30;;
7017;SDS011;3549;42.162;24.726;2022-10-31T15:34:02;7.47;;;3.90;;
7017;SDS011;3549;42.162;24.726;2022-10-31T15:36:31;10.97;;;3.50;;
7017;SDS011;3549;42.162;24.726;2022-10-31T15:38:57;8.87;;;3.27;;
7017;SDS011;3549;42.162;24.726;2022-10-31T15:44:32;8.07;;;3.77;;
7017;SDS011;3549;42.162;24.726;2022-10-31T15:47:01;12.00;;;4.10;;
7017;SDS011;3549;42.162;24.726;2022-10-31T15:52:03;10.90;;;3.80;;
7017;SDS011;3549;42.162;24.726;2022-10-31T15:54:33;8.90;;;3.10;;
7017;SDS011;3549;42.162;24.726;2022-10-31T15:57:10;8.07;;;3.40;;
7017;SDS011;3549;42.162;24.726;2022-10-31T15:59:37;8.77;;;3.20;;
7017;SDS011;3549;42.162;24.726;2022-10-31T16:02:09;13.87;;;4.60;;
7017;SDS011;3549;42.162;24.726;2022-10-31T16:04:36;8.80;;;4.00;;
7017;SDS011;3549;42.162;24.726;2022-10-31T16:07:03;9.63;;;3.80;;
7017;SDS011;3549;42.162;24.726;2022-10-31T16:09:48;11.47;;;5.43;;
7017;SDS011;3549;42.162;24.726;2022-10-31T16:12:14;7.60;;;4.23;;
7017;SDS011;3549;42.162;24.726;2022-10-31T16:14:40;10.23;;;4.57;;
7017;SDS011;3549;42.162;24.726;2022-10-31T16:17:10;8.37;;;4.10;;
7017;SDS011;3549;42.162;24.726;2022-10-31T16:20:00;6.93;;;3.53;;
7017;SDS011;3549;42.162;24.726;2022-10-31T16:22:29;9.50;;;3.90;;
7017;SDS011;3549;42.162;24.726;2022-10-31T16:25:15;10.87;;;3.50;;
7017;SDS011;3549;42.162;24.726;2022-10-31T16:27:53;6.73;;;3.40;;
7017;SDS011;3549;42.162;24.726;2022-10-31T16:32:55;12.93;;;3.77;;
7017;SDS011;3549;42.162;24.726;2022-10-31T16:37:50;9.00;;;4.07;;
7017;SDS011;3549;42.162;24.726;2022-10-31T16:40:16;11.47;;;3.80;;
7017;SDS011;3549;42.162;24.726;2022-10-31T16:42:42;9.50;;;4.00;;
7017;SDS011;3549;42.162;24.726;2022-10-31T16:45:19;8.40;;;3.50;;
7017;SDS011;3549;42.162;24.726;2022-10-31T16:47:46;10.20;;;4.13;;
7017;SDS011;3549;42.162;24.726;2022-10-31T16:50:19;10.73;;;4.30;;
7017;SDS011;3549;42.162;24.726;2022-10-31T16:52:50;9.40;;;4.10;;
7017;SDS011;3549;42.162;24.726;2022-10-31T16:55:17;9.33;;;4.10;;
7017;SDS011;3549;42.162;24.726;2022-10-31T16:57:45;11.90;;;4.53;;
7017;SDS011;3549;42.162;24.726;2022-10-31T17:00:14;9.17;;;4.70;;
7017;SDS011;3549;42.162;24.726;2022-10-31T17:02:51;13.43;;;5.13;;
7017;SDS011;3549;42.162;24.726;2022-10-31T17:05:18;11.10;;;5.00;;
7017;SDS011;3549;42.162;24.726;2022-10-31T17:07:46;11.77;;;4.77;;
7017;SDS011;3549;42.162;24.726;2022-10-31T17:10:12;13.77;;;5.50;;
7017;SDS011;3549;42.162;24.726;2022-10-31T17:12:40;14.50;;;5.63;;
7017;SDS011;3549;42.162;24.726;2022-10-31T17:15:14;11.40;;;5.10;;
7017;SDS011;3549;42.162;24.726;2022-10-31T17:17:41;16.37;;;6.00;;
7017;SDS011;3549;42.162;24.726;2022-10-31T17:20:14;13.93;;;5.40;;
7017;SDS011;3549;42.162;24.726;2022-10-31T17:22:47;12.60;;;6.17;;
7017;SDS011;3549;42.162;24.726;2022-10-31T17:25:14;14.20;;;5.67;;
7017;SDS011;3549;42.162;24.726;2022-10-31T17:27:41;14.80;;;6.13;;
7017;SDS011;3549;42.162;24.726;2022-10-31T17:30:07;14.43;;;6.50;;
7017;SDS011;3549;42.162;24.726;2022-10-31T17:32:33;19.07;;;7.03;;
7017;SDS011;3549;42.162;24.726;2022-10-31T17:34:59;24.07;;;7.60;;
7017;SDS011;3549;42.162;24.726;2022-10-31T17:37:24;13.43;;;7.53;;
7017;SDS011;3549;42.162;24.726;2022-10-31T17:39:50;21.77;;;7.23;;
7017;SDS011;3549;42.162;24.726;2022-10-31T17:42:15;23.03;;;7.80;;
7017;SDS011;3549;42.162;24.726;2022-10-31T17:44:40;14.13;;;7.60;;
7017;SDS011;3549;42.162;24.726;2022-10-31T17:47:06;17.17;;;7.90;;
7017;SDS011;3549;42.162;24.726;2022-10-31T17:49:31;16.63;;;8.00;;
7017;SDS011;3549;42.162;24.726;2022-10-31T17:51:56;18.23;;;8.77;;
7017;SDS011;3549;42.162;24.726;2022-10-31T17:54:22;22.23;;;8.70;;
7017;SDS011;3549;42.162;24.726;2022-10-31T17:56:47;22.30;;;9.23;;
7017;SDS011;3549;42.162;24.726;2022-10-31T17:59:13;19.60;;;8.17;;
7017;SDS011;3549;42.162;24.726;2022-10-31T18:01:38;21.30;;;8.93;;
7017;SDS011;3549;42.162;24.726;2022-10-31T18:04:04;20.13;;;8.67;;
7017;SDS011;3549;42.162;24.726;2022-10-31T18:06:29;22.97;;;9.83;;
7017;SDS011;3549;42.162;24.726;2022-10-31T18:08:54;22.70;;;10.23;;
7017;SDS011;3549;42.162;24.726;2022-10-31T18:11:22;18.13;;;9.20;;
7017;SDS011;3549;42.162;24.726;2022-10-31T18:13:52;21.27;;;8.93;;